Time;durP1;ratioP1;P1;durP2;ratioP2;P2;SDS_P1;SDS_P2;PMS_P1;PMS_P2;Temp;Humidity;BMP_temperature;BMP_pressure;BME280_temperature;BME280_humidity;BME280_pressure;Samples;Min_cycle;Max_cycle;Signal;HPM_P1;HPM_P2
2023/08/01 00:00:34;;;;;;;11.55;7.57;;;;;;;;;;5011150;28;20713;-73
2023/08/01 00:02:59;;;;;;;9.45;7.22;;;;;;;;;;5006723;28;20204;-73
2023/08/01 00:05:25;;;;;;;15.52;7.68;;;;;;;;;;5007126;28;20191;-73
2023/08/01 00:07:52;;;;;;;10.85;7.35;;;;;;;;;;5012074;28;20182;-73
2023/08/01 00:10:17;;;;;;;13.15;7.20;;;;;;;;;;5010566;28;20199;-74
2023/08/01 00:12:43;;;;;;;12.77;7.50;;;;;;;;;;5000116;28;20471;-73
2023/08/01 00:15:09;;;;;;;12.38;7.28;;;;;;;;;;5005060;28;20240;-74
2023/08/01 00:17:34;;;;;;;12.50;7.13;;;;;;;;;;5006631;28;20667;-74
2023/08/01 00:20:01;;;;;;;10.95;7.22;;;;;;;;;;5001031;28;20190;-74
2023/08/01 00:22:26;;;;;;;10.75;7.22;;;;;;;;;;5009592;28;20210;-73
2023/08/01 00:24:51;;;;;;;12.27;7.93;;;;;;;;;;5001802;28;20317;-74
2023/08/01 00:27:17;;;;;;;11.50;7.47;;;;;;;;;;5018528;28;20175;-73
2023/08/01 00:29:42;;;;;;;10.77;7.22;;;;;;;;;;4999663;28;20341;-73
2023/08/01 00:32:08;;;;;;;12.82;7.55;;;;;;;;;;4990118;28;20672;-74
2023/08/01 00:34:33;;;;;;;13.27;7.10;;;;;;;;;;5011049;28;20720;-73
2023/08/01 00:36:58;;;;;;;11.35;6.65;;;;;;;;;;5005262;28;20191;-74
2023/08/01 00:39:24;;;;;;;10.90;7.78;;;;;;;;;;5005490;28;20251;-73
2023/08/01 00:41:49;;;;;;;11.20;7.20;;;;;;;;;;5011403;28;20593;-73
2023/08/01 00:44:14;;;;;;;13.27;7.50;;;;;;;;;;5010188;28;20190;-73
2023/08/01 00:46:40;;;;;;;10.98;7.75;;;;;;;;;;5008376;28;20183;-73
2023/08/01 00:49:05;;;;;;;12.40;8.90;;;;;;;;;;5013943;28;20183;-73
2023/08/01 00:51:32;;;;;;;14.75;9.13;;;;;;;;;;5014925;28;20278;-72
2023/08/01 00:53:58;;;;;;;13.73;8.45;;;;;;;;;;5014386;28;20232;-73
2023/08/01 00:56:24;;;;;;;15.18;9.02;;;;;;;;;;5015077;28;20293;-73
2023/08/01 00:58:49;;;;;;;13.20;8.68;;;;;;;;;;5006440;28;20577;-73
2023/08/01 01:01:14;;;;;;;12.02;8.93;;;;;;;;;;5006421;28;20267;-73
2023/08/01 01:03:40;;;;;;;11.32;8.55;;;;;;;;;;5012855;28;20218;-73
2023/08/01 01:06:38;;;;;;;12.38;7.82;;;;;;;;;;5005464;28;20191;-73
2023/08/01 01:09:15;;;;;;;11.60;7.50;;;;;;;;;;5001122;28;20198;-73
2023/08/01 01:11:40;;;;;;;11.23;7.85;;;;;;;;;;5012118;28;20213;-73
2023/08/01 01:14:06;;;;;;;9.35;6.45;;;;;;;;;;4995837;28;20195;-73
2023/08/01 01:16:31;;;;;;;8.38;6.00;;;;;;;;;;5010996;28;20210;-73
2023/08/01 01:18:56;;;;;;;7.95;5.97;;;;;;;;;;4994816;28;20712;-73
2023/08/01 01:21:22;;;;;;;8.18;5.13;;;;;;;;;;4999645;28;20211;-73
2023/08/01 01:23:49;;;;;;;9.45;5.88;;;;;;;;;;5013898;28;20219;-73
2023/08/01 01:26:16;;;;;;;8.68;5.68;;;;;;;;;;5011774;28;20203;-73
2023/08/01 01:28:43;;;;;;;6.85;4.72;;;;;;;;;;5008335;28;20226;-74
2023/08/01 01:31:09;;;;;;;8.73;5.13;;;;;;;;;;5013674;28;20239;-73
2023/08/01 01:33:34;;;;;;;10.05;5.28;;;;;;;;;;5011126;28;20182;-73
2023/08/01 01:36:01;;;;;;;11.80;5.57;;;;;;;;;;5010872;28;20206;-73
2023/08/01 01:38:27;;;;;;;11.05;5.63;;;;;;;;;;4996884;28;20187;-73
2023/08/01 01:40:52;;;;;;;9.43;5.45;;;;;;;;;;5012231;28;20301;-74
2023/08/01 01:43:17;;;;;;;9.63;6.35;;;;;;;;;;5013563;28;20293;-74
2023/08/01 01:45:43;;;;;;;9.57;6.85;;;;;;;;;;5013781;28;20194;-73
2023/08/01 01:48:08;;;;;;;8.55;7.03;;;;;;;;;;5014298;28;20278;-74
2023/08/01 01:50:34;;;;;;;8.68;7.22;;;;;;;;;;5009266;28;20348;-74
2023/08/01 01:52:59;;;;;;;10.32;8.05;;;;;;;;;;4985876;28;20183;-73
2023/08/01 01:55:24;;;;;;;10.48;7.40;;;;;;;;;;5013547;28;20217;-73
2023/08/01 01:57:50;;;;;;;13.50;8.32;;;;;;;;;;5005283;28;20745;-74
2023/08/01 02:00:15;;;;;;;14.43;8.23;;;;;;;;;;5015539;28;20190;-73
2023/08/01 02:02:41;;;;;;;11.55;8.13;;;;;;;;;;5011816;28;20245;-74
2023/08/01 02:05:07;;;;;;;9.55;7.30;;;;;;;;;;5013772;28;20197;-74
2023/08/01 02:07:33;;;;;;;12.30;8.15;;;;;;;;;;5008195;28;20190;-73
2023/08/01 02:09:59;;;;;;;13.27;7.80;;;;;;;;;;5000402;28;20183;-73
2023/08/01 02:12:25;;;;;;;15.68;7.05;;;;;;;;;;5007060;28;20249;-74
2023/08/01 02:14:50;;;;;;;11.60;6.38;;;;;;;;;;4998868;28;20203;-72
2023/08/01 02:17:16;;;;;;;10.30;6.13;;;;;;;;;;5003890;28;20245;-73
2023/08/01 02:19:41;;;;;;;15.55;7.25;;;;;;;;;;5010259;28;20202;-73
2023/08/01 02:22:06;;;;;;;13.98;5.28;;;;;;;;;;4994353;28;20569;-72
2023/08/01 02:24:32;;;;;;;11.38;5.75;;;;;;;;;;5009146;28;20286;-72
2023/08/01 02:26:57;;;;;;;11.60;5.38;;;;;;;;;;5004743;28;20218;-72
2023/08/01 02:29:23;;;;;;;12.27;5.68;;;;;;;;;;4995724;28;20242;-73
2023/08/01 02:31:48;;;;;;;11.25;5.60;;;;;;;;;;4980379;28;20186;-72
2023/08/01 02:34:13;;;;;;;13.68;5.90;;;;;;;;;;4992160;28;20199;-72
2023/08/01 02:36:40;;;;;;;15.10;6.28;;;;;;;;;;5007549;28;20222;-72
2023/08/01 02:39:06;;;;;;;20.38;6.30;;;;;;;;;;5002356;28;20477;-72
2023/08/01 02:41:31;;;;;;;13.13;6.20;;;;;;;;;;4992085;28;20222;-73
2023/08/01 02:43:57;;;;;;;10.43;6.88;;;;;;;;;;5003655;28;20281;-72
2023/08/01 02:46:22;;;;;;;14.30;6.35;;;;;;;;;;5011991;28;20187;-72
2023/08/01 02:48:48;;;;;;;18.27;6.82;;;;;;;;;;4993237;28;20226;-72
2023/08/01 02:51:13;;;;;;;14.02;7.15;;;;;;;;;;4994962;28;20210;-72
2023/08/01 02:53:42;;;;;;;12.65;7.05;;;;;;;;;;5004222;28;20655;-73
2023/08/01 02:56:09;;;;;;;10.68;6.75;;;;;;;;;;5009458;28;20234;-73
2023/08/01 02:58:35;;;;;;;18.63;7.25;;;;;;;;;;5000389;28;20191;-72
2023/08/01 03:01:01;;;;;;;18.15;8.60;;;;;;;;;;4998162;28;20206;-72
2023/08/01 03:03:27;;;;;;;11.57;7.25;;;;;;;;;;5004803;28;20237;-72
2023/08/01 03:05:52;;;;;;;18.83;7.05;;;;;;;;;;5011976;28;20654;-74
2023/08/01 03:08:18;;;;;;;15.73;8.05;;;;;;;;;;5005170;28;20216;-73
2023/08/01 03:10:44;;;;;;;14.23;7.32;;;;;;;;;;4996394;28;20655;-73
2023/08/01 03:13:09;;;;;;;19.92;7.85;;;;;;;;;;5000424;28;20203;-74
2023/08/01 03:15:35;;;;;;;18.73;7.88;;;;;;;;;;5001228;28;20194;-74
2023/08/01 03:18:00;;;;;;;13.52;6.85;;;;;;;;;;5008456;28;20249;-73
2023/08/01 03:20:25;;;;;;;17.05;7.70;;;;;;;;;;5003864;28;20205;-74
2023/08/01 03:22:51;;;;;;;15.07;7.65;;;;;;;;;;5012213;28;20246;-74
2023/08/01 03:25:16;;;;;;;15.02;7.47;;;;;;;;;;5009627;28;20649;-73
2023/08/01 03:27:42;;;;;;;16.50;7.85;;;;;;;;;;5011047;28;20241;-73
2023/08/01 03:30:08;;;;;;;16.80;7.13;;;;;;;;;;4999946;28;20222;-73
2023/08/01 03:32:36;;;;;;;18.15;7.30;;;;;;;;;;5003299;28;20294;-73
2023/08/01 03:35:03;;;;;;;16.88;7.53;;;;;;;;;;5004865;28;20214;-73
2023/08/01 03:37:28;;;;;;;17.58;7.95;;;;;;;;;;5011064;28;20199;-73
2023/08/01 03:39:53;;;;;;;17.35;8.40;;;;;;;;;;5011343;28;20186;-73
2023/08/01 03:42:19;;;;;;;14.75;7.60;;;;;;;;;;4982134;28;20207;-73
2023/08/01 03:44:44;;;;;;;21.05;8.55;;;;;;;;;;5011133;28;20597;-72
2023/08/01 03:47:09;;;;;;;20.15;7.97;;;;;;;;;;5003015;28;20218;-73
2023/08/01 03:49:35;;;;;;;19.67;8.25;;;;;;;;;;4996677;28;20209;-73
2023/08/01 03:52:00;;;;;;;23.05;7.88;;;;;;;;;;5013143;28;20237;-73
2023/08/01 03:54:26;;;;;;;17.27;8.65;;;;;;;;;;5010687;28;20566;-73
2023/08/01 03:56:51;;;;;;;19.02;8.65;;;;;;;;;;5011289;28;20191;-73
2023/08/01 03:59:18;;;;;;;19.77;8.40;;;;;;;;;;5009758;28;20495;-73
2023/08/01 04:01:43;;;;;;;17.88;8.68;;;;;;;;;;5004767;28;20202;-73
2023/08/01 04:04:09;;;;;;;16.48;8.40;;;;;;;;;;5008426;28;20198;-73
2023/08/01 04:06:34;;;;;;;20.42;8.27;;;;;;;;;;5000945;28;20199;-73
2023/08/01 04:09:00;;;;;;;17.75;8.43;;;;;;;;;;5004342;28;20183;-73
2023/08/01 04:11:26;;;;;;;18.85;8.23;;;;;;;;;;5010204;28;20242;-72
2023/08/01 04:13:52;;;;;;;24.48;8.95;;;;;;;;;;5024722;28;20526;-72
2023/08/01 04:16:17;;;;;;;21.17;8.63;;;;;;;;;;5001816;28;20210;-73
2023/08/01 04:18:42;;;;;;;20.35;8.07;;;;;;;;;;5009640;28;20206;-73
2023/08/01 04:21:08;;;;;;;20.25;8.55;;;;;;;;;;5003367;28;20191;-72
2023/08/01 04:23:33;;;;;;;22.17;8.13;;;;;;;;;;5008009;28;20214;-73
2023/08/01 04:25:59;;;;;;;21.77;8.30;;;;;;;;;;5009730;28;20205;-73
2023/08/01 04:28:25;;;;;;;15.18;8.00;;;;;;;;;;5008384;28;20412;-73
2023/08/01 04:30:51;;;;;;;16.15;8.05;;;;;;;;;;5010905;28;20191;-73
2023/08/01 04:33:17;;;;;;;19.08;8.73;;;;;;;;;;5010678;28;20273;-75
2023/08/01 04:35:42;;;;;;;19.60;8.75;;;;;;;;;;5010383;28;20190;-72
2023/08/01 04:38:08;;;;;;;24.20;9.32;;;;;;;;;;5009938;28;20191;-73
2023/08/01 04:40:34;;;;;;;24.20;9.20;;;;;;;;;;5011001;28;20273;-73
2023/08/01 04:43:01;;;;;;;19.25;8.13;;;;;;;;;;5011191;28;20215;-74
2023/08/01 04:45:27;;;;;;;13.68;8.10;;;;;;;;;;5008459;28;20194;-74
2023/08/01 04:47:52;;;;;;;19.60;9.10;;;;;;;;;;4997306;28;20604;-74
2023/08/01 04:50:17;;;;;;;16.50;8.77;;;;;;;;;;4997521;28;20233;-72
2023/08/01 04:52:43;;;;;;;13.68;8.00;;;;;;;;;;4999087;28;20183;-74
2023/08/01 04:55:08;;;;;;;19.63;8.63;;;;;;;;;;5009756;28;20198;-74
2023/08/01 04:57:34;;;;;;;23.02;8.88;;;;;;;;;;5006547;28;20206;-74
2023/08/01 04:59:59;;;;;;;16.25;8.77;;;;;;;;;;4999808;28;20401;-73
2023/08/01 05:02:25;;;;;;;15.13;8.15;;;;;;;;;;5002143;28;20582;-74
2023/08/01 05:04:51;;;;;;;15.55;7.57;;;;;;;;;;4997927;28;20191;-78
2023/08/01 05:07:16;;;;;;;16.90;8.73;;;;;;;;;;4995938;28;20266;-73
2023/08/01 05:09:42;;;;;;;15.88;8.13;;;;;;;;;;4990145;28;20679;-72
2023/08/01 05:12:08;;;;;;;17.88;8.02;;;;;;;;;;5000363;28;20187;-72
2023/08/01 05:14:34;;;;;;;20.85;8.73;;;;;;;;;;5000552;28;20270;-73
2023/08/01 05:16:59;;;;;;;18.92;8.93;;;;;;;;;;5002081;28;20685;-73
2023/08/01 05:19:24;;;;;;;22.90;8.60;;;;;;;;;;4994006;28;20195;-74
2023/08/01 05:21:50;;;;;;;15.95;8.65;;;;;;;;;;4997671;28;20554;-74
2023/08/01 05:24:15;;;;;;;17.25;8.30;;;;;;;;;;4991966;28;20204;-73
2023/08/01 05:26:41;;;;;;;13.63;8.05;;;;;;;;;;4985459;28;20219;-73
2023/08/01 05:29:06;;;;;;;18.10;8.40;;;;;;;;;;4995968;28;20253;-74
2023/08/01 05:31:31;;;;;;;14.60;7.85;;;;;;;;;;4998312;28;20285;-74
2023/08/01 05:33:57;;;;;;;16.75;7.30;;;;;;;;;;4993692;28;20607;-73
2023/08/01 05:36:22;;;;;;;14.40;7.07;;;;;;;;;;5014901;28;20304;-73
2023/08/01 05:38:47;;;;;;;19.15;7.32;;;;;;;;;;5003259;28;20195;-72
2023/08/01 05:41:13;;;;;;;14.20;6.70;;;;;;;;;;5001603;28;20729;-73
2023/08/01 05:43:38;;;;;;;12.57;6.80;;;;;;;;;;5007431;28;20229;-73
2023/08/01 05:46:03;;;;;;;15.20;7.45;;;;;;;;;;5001661;28;20195;-74
2023/08/01 05:48:29;;;;;;;16.23;6.80;;;;;;;;;;4998363;28;20643;-72
2023/08/01 05:50:55;;;;;;;13.52;6.97;;;;;;;;;;5008807;28;20654;-73
2023/08/01 05:53:21;;;;;;;14.30;6.68;;;;;;;;;;4995870;28;20201;-72
2023/08/01 05:55:47;;;;;;;15.23;5.95;;;;;;;;;;5000802;28;20208;-73
2023/08/01 05:58:12;;;;;;;11.93;6.13;;;;;;;;;;5012224;28;20187;-73
2023/08/01 06:00:37;;;;;;;11.55;6.05;;;;;;;;;;5002494;28;20187;-73
2023/08/01 06:03:03;;;;;;;13.63;6.55;;;;;;;;;;4998388;28;20219;-73
2023/08/01 06:05:28;;;;;;;10.95;5.15;;;;;;;;;;4991393;28;20270;-73
2023/08/01 06:07:54;;;;;;;16.80;5.90;;;;;;;;;;5007269;28;20218;-72
2023/08/01 06:10:19;;;;;;;13.85;5.95;;;;;;;;;;4995206;28;20202;-74
2023/08/01 06:12:45;;;;;;;12.93;6.00;;;;;;;;;;5005065;28;20693;-73
2023/08/01 06:15:10;;;;;;;12.88;5.70;;;;;;;;;;5000436;28;20648;-74
2023/08/01 06:17:36;;;;;;;15.18;6.53;;;;;;;;;;4994611;28;20574;-73
2023/08/01 06:20:04;;;;;;;15.38;5.97;;;;;;;;;;5006380;28;20195;-73
2023/08/01 06:22:29;;;;;;;17.20;5.80;;;;;;;;;;4996680;28;20218;-73
2023/08/01 06:24:55;;;;;;;14.88;6.05;;;;;;;;;;5016627;28;20190;-73
2023/08/01 06:27:20;;;;;;;17.98;5.85;;;;;;;;;;4998092;28;20210;-73
2023/08/01 06:29:45;;;;;;;17.70;6.30;;;;;;;;;;4994980;28;20392;-72
2023/08/01 06:32:11;;;;;;;12.07;5.18;;;;;;;;;;5006961;28;20187;-73
2023/08/01 06:34:36;;;;;;;14.68;6.00;;;;;;;;;;5011612;28;20300;-73
2023/08/01 06:37:03;;;;;;;16.98;6.07;;;;;;;;;;5006948;28;20197;-72
2023/08/01 06:39:29;;;;;;;15.93;7.18;;;;;;;;;;4987811;28;20242;-73
2023/08/01 06:41:54;;;;;;;16.50;5.68;;;;;;;;;;5014113;28;20347;-73
2023/08/01 06:44:20;;;;;;;15.48;6.05;;;;;;;;;;5003982;28;20206;-77
2023/08/01 06:46:45;;;;;;;14.65;5.70;;;;;;;;;;5012160;28;20635;-72
2023/08/01 06:49:10;;;;;;;18.73;5.60;;;;;;;;;;5007118;28;20202;-73
2023/08/01 06:51:36;;;;;;;12.10;5.55;;;;;;;;;;5011790;28;20186;-72
2023/08/01 06:54:01;;;;;;;14.77;5.80;;;;;;;;;;5001606;28;20191;-73
2023/08/01 06:56:26;;;;;;;14.13;5.97;;;;;;;;;;5005612;28;20203;-73
2023/08/01 06:58:52;;;;;;;16.63;6.47;;;;;;;;;;5007263;28;20198;-73
2023/08/01 07:01:17;;;;;;;17.13;5.53;;;;;;;;;;5009183;28;20202;-73
2023/08/01 07:03:43;;;;;;;13.88;5.47;;;;;;;;;;5011178;28;20570;-73
2023/08/01 07:06:08;;;;;;;12.80;5.90;;;;;;;;;;5006217;28;20257;-73
2023/08/01 07:08:34;;;;;;;15.80;6.18;;;;;;;;;;4997687;28;20287;-73
2023/08/01 07:10:59;;;;;;;15.43;5.57;;;;;;;;;;4997102;28;20275;-73
2023/08/01 07:13:25;;;;;;;17.77;6.15;;;;;;;;;;4990061;28;20538;-73
2023/08/01 07:15:51;;;;;;;16.90;5.47;;;;;;;;;;5003026;28;20267;-74
2023/08/01 07:18:16;;;;;;;14.00;5.80;;;;;;;;;;5004712;28;20221;-74
2023/08/01 07:20:42;;;;;;;13.13;5.57;;;;;;;;;;5001173;28;20184;-74
2023/08/01 07:23:07;;;;;;;16.77;5.55;;;;;;;;;;5002703;28;20250;-74
2023/08/01 07:25:32;;;;;;;18.00;5.40;;;;;;;;;;5002559;28;20190;-74
2023/08/01 07:27:58;;;;;;;13.40;5.53;;;;;;;;;;4998594;28;20223;-73
2023/08/01 07:30:23;;;;;;;16.00;5.32;;;;;;;;;;5017414;28;20191;-73
2023/08/01 07:32:48;;;;;;;15.82;5.22;;;;;;;;;;4995147;28;20274;-74
2023/08/01 07:35:14;;;;;;;14.35;5.57;;;;;;;;;;4994091;28;20191;-73
2023/08/01 07:37:39;;;;;;;17.13;5.40;;;;;;;;;;5003937;28;20202;-74
2023/08/01 07:40:09;;;;;;;13.82;4.95;;;;;;;;;;5003938;28;20612;-74
2023/08/01 07:42:34;;;;;;;11.82;4.60;;;;;;;;;;4999366;28;20221;-74
2023/08/01 07:45:00;;;;;;;8.00;4.53;;;;;;;;;;4984090;28;20186;-74
2023/08/01 07:47:25;;;;;;;11.85;4.40;;;;;;;;;;5008465;28;20206;-73
2023/08/01 07:49:51;;;;;;;12.35;4.20;;;;;;;;;;5005759;28;20555;-74
2023/08/01 07:52:17;;;;;;;10.77;4.00;;;;;;;;;;5005002;28;20450;-74
2023/08/01 07:54:42;;;;;;;12.82;4.10;;;;;;;;;;5012359;28;20603;-73
2023/08/01 07:57:07;;;;;;;11.27;3.78;;;;;;;;;;4999416;28;20220;-77
2023/08/01 07:59:33;;;;;;;11.38;3.97;;;;;;;;;;4999758;28;20191;-73
2023/08/01 08:01:58;;;;;;;9.82;3.92;;;;;;;;;;4993567;28;20209;-73
2023/08/01 08:04:23;;;;;;;12.38;3.83;;;;;;;;;;5007438;28;20195;-73
2023/08/01 08:06:49;;;;;;;13.95;3.55;;;;;;;;;;4992065;28;20187;-73
2023/08/01 08:09:14;;;;;;;11.90;2.85;;;;;;;;;;5002505;28;20617;-73
2023/08/01 08:11:40;;;;;;;6.55;2.78;;;;;;;;;;4990807;28;20551;-73
2023/08/01 08:14:05;;;;;;;9.35;3.10;;;;;;;;;;5007439;28;20191;-73
2023/08/01 08:16:30;;;;;;;9.60;3.53;;;;;;;;;;5007088;28;20751;-73
2023/08/01 08:18:56;;;;;;;8.13;3.20;;;;;;;;;;5003330;28;20198;-74
2023/08/01 08:21:21;;;;;;;9.15;2.95;;;;;;;;;;5014008;28;20191;-75
2023/08/01 08:23:46;;;;;;;11.05;2.72;;;;;;;;;;5011608;28;20745;-72
2023/08/01 08:26:12;;;;;;;12.02;3.22;;;;;;;;;;5007325;28;20265;-72
2023/08/01 08:28:37;;;;;;;7.43;2.70;;;;;;;;;;4989749;28;20222;-73
2023/08/01 08:31:04;;;;;;;8.50;3.13;;;;;;;;;;4999238;28;20242;-73
2023/08/01 08:33:30;;;;;;;8.32;3.05;;;;;;;;;;4976059;28;20196;-73
2023/08/01 08:35:56;;;;;;;8.55;2.72;;;;;;;;;;4977131;28;20218;-73
2023/08/01 08:38:21;;;;;;;8.20;3.25;;;;;;;;;;4988012;28;20671;-72
2023/08/01 08:40:56;;;;;;;10.20;2.47;;;;;;;;;;4990253;28;20274;-77
2023/08/01 08:43:23;;;;;;;9.65;2.38;;;;;;;;;;4990125;28;20215;-74
2023/08/01 08:45:49;;;;;;;7.30;2.60;;;;;;;;;;4983808;28;20629;-73
2023/08/01 08:48:19;;;;;;;8.98;2.55;;;;;;;;;;4996387;28;20184;-72
2023/08/01 08:50:46;;;;;;;6.85;2.13;;;;;;;;;;4976516;28;20196;-74
2023/08/01 08:53:12;;;;;;;7.90;2.38;;;;;;;;;;4982916;28;20191;-73
2023/08/01 08:55:40;;;;;;;7.80;2.20;;;;;;;;;;4984567;28;20191;-73
2023/08/01 08:58:07;;;;;;;6.30;2.40;;;;;;;;;;4965854;28;20187;-73
2023/08/01 09:00:34;;;;;;;6.03;2.83;;;;;;;;;;4988090;28;20187;-74
2023/08/01 09:03:00;;;;;;;6.28;2.15;;;;;;;;;;5001831;28;20220;-73
2023/08/01 09:05:30;;;;;;;5.63;2.53;;;;;;;;;;4980966;28;20258;-73
2023/08/01 09:07:57;;;;;;;5.28;2.05;;;;;;;;;;4980876;28;20194;-73
2023/08/01 09:10:23;;;;;;;5.88;2.05;;;;;;;;;;4293456;28;10000826;-73
2023/08/01 09:12:49;;;;;;;7.13;2.40;;;;;;;;;;4995898;28;20606;-73
2023/08/01 09:15:14;;;;;;;6.60;2.22;;;;;;;;;;4991060;28;20219;-73
2023/08/01 09:17:53;;;;;;;7.22;2.55;;;;;;;;;;4987418;28;20298;-74
2023/08/01 09:20:19;;;;;;;6.32;2.67;;;;;;;;;;4993532;28;20266;-73
2023/08/01 09:22:45;;;;;;;5.15;2.28;;;;;;;;;;4989226;28;20613;-72
2023/08/01 09:25:12;;;;;;;7.60;2.05;;;;;;;;;;5008117;28;20191;-76
2023/08/01 09:27:37;;;;;;;4.47;1.75;;;;;;;;;;4989026;28;20220;-73
2023/08/01 09:30:07;;;;;;;7.22;2.47;;;;;;;;;;4987072;28;20249;-73
2023/08/01 09:32:33;;;;;;;5.30;1.95;;;;;;;;;;4988232;28;20191;-72
2023/08/01 09:35:00;;;;;;;9.00;2.15;;;;;;;;;;4992306;28;20218;-73
2023/08/01 09:37:25;;;;;;;6.57;2.22;;;;;;;;;;5006155;28;20282;-73
2023/08/01 09:39:55;;;;;;;5.60;2.50;;;;;;;;;;4988372;28;20612;-73
2023/08/01 09:42:21;;;;;;;6.13;2.22;;;;;;;;;;4991638;28;20219;-73
2023/08/01 09:44:49;;;;;;;11.20;2.95;;;;;;;;;;4988262;28;20187;-73
2023/08/01 09:47:14;;;;;;;9.15;2.60;;;;;;;;;;4985120;28;20203;-73
2023/08/01 09:49:49;;;;;;;6.50;2.80;;;;;;;;;;4981256;28;20556;-72
2023/08/01 09:52:15;;;;;;;6.63;2.13;;;;;;;;;;4992934;28;20545;-73
2023/08/01 09:54:40;;;;;;;5.55;1.58;;;;;;;;;;4979812;28;20184;-73
2023/08/01 09:57:06;;;;;;;6.97;2.05;;;;;;;;;;4995688;28;20203;-73
2023/08/01 09:59:33;;;;;;;9.23;1.90;;;;;;;;;;4994214;28;20276;-73
2023/08/01 10:02:01;;;;;;;4.72;1.73;;;;;;;;;;4998504;28;20562;-73
2023/08/01 10:04:29;;;;;;;4.05;1.52;;;;;;;;;;4986211;28;20274;-73
2023/08/01 10:07:01;;;;;;;5.60;1.95;;;;;;;;;;4982404;28;20188;-72
2023/08/01 10:09:27;;;;;;;6.75;1.60;;;;;;;;;;4635816;28;9999621;-74
2023/08/01 10:11:56;;;;;;;5.72;1.90;;;;;;;;;;4985271;28;20302;-73
2023/08/01 10:14:22;;;;;;;3.90;1.58;;;;;;;;;;4986938;28;20275;-74
2023/08/01 10:16:48;;;;;;;4.63;1.60;;;;;;;;;;4992123;28;20610;-72
2023/08/01 10:19:14;;;;;;;4.63;1.52;;;;;;;;;;4980843;28;20683;-78
2023/08/01 10:21:41;;;;;;;6.55;1.50;;;;;;;;;;4995461;28;20187;-73
2023/08/01 10:24:07;;;;;;;4.13;1.40;;;;;;;;;;4990069;28;20223;-75
2023/08/01 10:26:33;;;;;;;7.82;1.58;;;;;;;;;;4996787;28;20195;-73
2023/08/01 10:29:00;;;;;;;7.13;1.80;;;;;;;;;;5001740;28;20564;-72
2023/08/01 10:31:25;;;;;;;4.55;1.58;;;;;;;;;;5001635;28;20195;-72
2023/08/01 10:33:52;;;;;;;8.05;1.70;;;;;;;;;;5010288;28;20292;-75
2023/08/01 10:36:19;;;;;;;7.47;1.70;;;;;;;;;;5009001;28;20266;-73
2023/08/01 10:38:49;;;;;;;5.97;1.65;;;;;;;;;;5009891;28;20198;-72
2023/08/01 10:41:32;;;;;;;5.57;1.77;;;;;;;;;;5009736;28;20195;-72
2023/08/01 10:44:12;;;;;;;4.05;1.98;;;;;;;;;;5004376;28;20218;-72
2023/08/01 10:46:57;;;;;;;6.55;1.80;;;;;;;;;;5005863;28;20183;-71
2023/08/01 10:49:39;;;;;;;7.53;1.88;;;;;;;;;;5001933;28;20198;-72
2023/08/01 10:52:28;;;;;;;3.55;1.25;;;;;;;;;;5000622;28;20436;-72
2023/08/01 10:55:02;;;;;;;7.60;2.05;;;;;;;;;;4992332;28;20670;-73
2023/08/01 10:57:29;;;;;;;5.95;2.30;;;;;;;;;;5000793;28;20195;-72
2023/08/01 10:59:57;;;;;;;6.93;1.90;;;;;;;;;;4993731;28;20198;-72
2023/08/01 11:02:25;;;;;;;9.63;2.17;;;;;;;;;;5005131;28;20206;-73
2023/08/01 11:05:00;;;;;;;6.10;2.00;;;;;;;;;;5007737;28;20222;-71
2023/08/01 11:07:26;;;;;;;5.63;1.92;;;;;;;;;;5003567;28;20189;-73
2023/08/01 11:10:07;;;;;;;5.90;2.08;;;;;;;;;;5001620;28;20566;-72
2023/08/01 11:12:36;;;;;;;7.97;2.15;;;;;;;;;;5009251;28;20197;-73
2023/08/01 11:15:04;;;;;;;6.30;1.77;;;;;;;;;;5008065;28;20271;-74
2023/08/01 11:17:30;;;;;;;7.35;1.83;;;;;;;;;;5003119;28;20269;-73
2023/08/01 11:20:07;;;;;;;5.80;1.60;;;;;;;;;;5008346;28;20191;-73
2023/08/01 11:22:33;;;;;;;3.33;1.33;;;;;;;;;;4988125;28;20294;-73
2023/08/01 11:24:58;;;;;;;4.55;1.45;;;;;;;;;;5010114;28;21169;-73
2023/08/01 11:27:25;;;;;;;7.97;2.20;;;;;;;;;;4991963;28;20673;-76
2023/08/01 11:29:51;;;;;;;6.40;1.90;;;;;;;;;;4995144;28;20188;-77
2023/08/01 11:32:16;;;;;;;13.15;2.65;;;;;;;;;;5002975;28;20237;-75
2023/08/01 11:34:46;;;;;;;13.20;2.63;;;;;;;;;;4992813;28;20187;-73
2023/08/01 11:37:12;;;;;;;8.20;2.70;;;;;;;;;;4982899;28;20601;-73
2023/08/01 11:39:37;;;;;;;8.93;2.97;;;;;;;;;;4632025;28;10000038;-75
2023/08/01 11:42:03;;;;;;;7.05;3.38;;;;;;;;;;5002590;28;20217;-75
2023/08/01 11:44:29;;;;;;;9.13;2.92;;;;;;;;;;4988912;28;20207;-73
2023/08/01 11:46:55;;;;;;;8.68;3.13;;;;;;;;;;4993250;28;20683;-73
2023/08/01 11:49:21;;;;;;;16.52;3.50;;;;;;;;;;4988530;28;20194;-75
2023/08/01 11:51:46;;;;;;;9.13;3.13;;;;;;;;;;4990039;28;20595;-75
2023/08/01 11:54:13;;;;;;;9.75;3.40;;;;;;;;;;5008359;28;20514;-75
2023/08/01 11:56:42;;;;;;;9.68;3.30;;;;;;;;;;4984969;28;20199;-76
2023/08/01 11:59:12;;;;;;;13.80;3.85;;;;;;;;;;4975761;28;20214;-73
2023/08/01 12:01:44;;;;;;;11.77;3.80;;;;;;;;;;4994826;28;20186;-75
2023/08/01 12:04:10;;;;;;;10.52;3.83;;;;;;;;;;5005863;28;20214;-74
2023/08/01 12:06:38;;;;;;;12.18;3.67;;;;;;;;;;4989645;28;20245;-74
2023/08/01 12:09:12;;;;;;;7.75;3.70;;;;;;;;;;4989619;28;20195;-73
2023/08/01 12:11:39;;;;;;;12.77;3.88;;;;;;;;;;4983275;28;20187;-73
2023/08/01 12:14:14;;;;;;;12.82;3.92;;;;;;;;;;4991933;28;20199;-76
2023/08/01 12:16:41;;;;;;;8.65;3.30;;;;;;;;;;5006932;28;20194;-72
2023/08/01 12:19:09;;;;;;;6.13;2.63;;;;;;;;;;4992486;28;20186;-73
2023/08/01 12:21:35;;;;;;;6.93;2.22;;;;;;;;;;4982813;28;20203;-73
2023/08/01 12:24:01;;;;;;;8.02;2.63;;;;;;;;;;5005368;28;20576;-74
2023/08/01 12:26:27;;;;;;;6.85;2.28;;;;;;;;;;5005475;28;20249;-73
2023/08/01 12:28:52;;;;;;;8.65;2.20;;;;;;;;;;5007886;28;20726;-74
2023/08/01 12:31:19;;;;;;;4.50;1.80;;;;;;;;;;4986307;28;20192;-75
2023/08/01 12:33:45;;;;;;;6.43;1.77;;;;;;;;;;4994129;28;20190;-73
2023/08/01 12:36:12;;;;;;;6.82;2.10;;;;;;;;;;4995447;28;20256;-72
2023/08/01 12:38:37;;;;;;;5.43;1.63;;;;;;;;;;4999256;28;20194;-72
2023/08/01 12:41:03;;;;;;;10.63;2.10;;;;;;;;;;5002817;28;20195;-72
2023/08/01 12:43:28;;;;;;;8.20;1.90;;;;;;;;;;4993770;28;20698;-73
2023/08/01 12:45:55;;;;;;;7.80;1.90;;;;;;;;;;4995520;28;20265;-73
2023/08/01 12:48:20;;;;;;;7.63;2.80;;;;;;;;;;4993466;28;20195;-74
2023/08/01 12:50:46;;;;;;;9.40;2.85;;;;;;;;;;4984009;28;20201;-75
2023/08/01 12:53:12;;;;;;;4.93;2.42;;;;;;;;;;5006216;28;20214;-74
2023/08/01 12:55:38;;;;;;;9.02;3.00;;;;;;;;;;5005498;28;20183;-73
2023/08/01 12:58:03;;;;;;;7.03;2.63;;;;;;;;;;4993176;28;20192;-74
2023/08/01 13:00:30;;;;;;;7.35;2.80;;;;;;;;;;4999839;28;20234;-74
2023/08/01 13:02:55;;;;;;;5.35;2.00;;;;;;;;;;4994407;28;20249;-72
2023/08/01 13:05:21;;;;;;;7.97;2.30;;;;;;;;;;4999853;28;20199;-75
2023/08/01 13:07:46;;;;;;;7.38;1.80;;;;;;;;;;5004988;28;20199;-73
2023/08/01 13:10:12;;;;;;;4.10;1.45;;;;;;;;;;5001080;28;20195;-76
2023/08/01 13:12:37;;;;;;;6.93;1.90;;;;;;;;;;4989644;28;20187;-73
2023/08/01 13:15:04;;;;;;;6.90;1.70;;;;;;;;;;4992340;28;20202;-74
2023/08/01 13:17:30;;;;;;;5.93;1.60;;;;;;;;;;5003606;28;20245;-75
2023/08/01 13:19:55;;;;;;;4.43;1.60;;;;;;;;;;5004387;28;20219;-74
2023/08/01 13:22:20;;;;;;;5.43;1.20;;;;;;;;;;5006263;28;20209;-74
2023/08/01 13:24:47;;;;;;;5.50;1.70;;;;;;;;;;5004240;28;20666;-74
2023/08/01 13:27:12;;;;;;;4.30;1.55;;;;;;;;;;5004226;28;20245;-73
2023/08/01 13:29:39;;;;;;;6.35;1.52;;;;;;;;;;4988246;28;20195;-73
2023/08/01 13:32:06;;;;;;;5.85;1.38;;;;;;;;;;5005785;28;20198;-73
2023/08/01 13:34:31;;;;;;;3.90;1.40;;;;;;;;;;4985929;28;20202;-72
2023/08/01 13:36:57;;;;;;;4.20;1.30;;;;;;;;;;5003693;28;20192;-73
2023/08/01 13:39:22;;;;;;;2.78;0.98;;;;;;;;;;4994367;28;20206;-73
2023/08/01 13:41:47;;;;;;;2.22;0.95;;;;;;;;;;4991841;28;20192;-72
2023/08/01 13:44:13;;;;;;;5.20;1.27;;;;;;;;;;4988511;28;20705;-72
2023/08/01 13:46:38;;;;;;;5.30;1.30;;;;;;;;;;4978845;28;20191;-72
2023/08/01 13:49:04;;;;;;;4.80;1.42;;;;;;;;;;4994200;28;20529;-74
2023/08/01 13:51:32;;;;;;;4.50;1.30;;;;;;;;;;4989634;28;20199;-73
2023/08/01 13:53:58;;;;;;;5.90;1.50;;;;;;;;;;4993033;28;20210;-72
2023/08/01 13:56:25;;;;;;;4.32;1.40;;;;;;;;;;4980094;28;20270;-74
2023/08/01 13:58:51;;;;;;;4.45;1.38;;;;;;;;;;4994058;28;20194;-74
2023/08/01 14:01:18;;;;;;;6.65;1.38;;;;;;;;;;5009656;28;20231;-73
2023/08/01 14:03:44;;;;;;;5.13;1.75;;;;;;;;;;4995661;28;20222;-74
2023/08/01 14:06:11;;;;;;;7.32;2.15;;;;;;;;;;5000349;28;20198;-73
2023/08/01 14:08:37;;;;;;;4.25;1.42;;;;;;;;;;4997633;28;20201;-73
2023/08/01 14:11:04;;;;;;;4.95;1.48;;;;;;;;;;5009705;28;20479;-73
2023/08/01 14:13:30;;;;;;;4.72;1.55;;;;;;;;;;5001300;28;20646;-73
2023/08/01 14:15:55;;;;;;;3.75;1.58;;;;;;;;;;5006023;28;20201;-74
2023/08/01 14:18:21;;;;;;;6.63;1.80;;;;;;;;;;5001254;28;20206;-75
2023/08/01 14:20:46;;;;;;;4.38;1.70;;;;;;;;;;5006632;28;20487;-73
2023/08/01 14:23:11;;;;;;;4.78;1.52;;;;;;;;;;5008905;28;20606;-73
2023/08/01 14:25:37;;;;;;;4.90;1.77;;;;;;;;;;5011121;28;20215;-74
2023/08/01 14:28:02;;;;;;;5.55;1.42;;;;;;;;;;5000836;28;20289;-73
2023/08/01 14:30:28;;;;;;;3.75;1.35;;;;;;;;;;5009025;28;20574;-72